Latest Weather Observations for Holsworthy

IDN60801

Issued at 10:33 pm EST Sunday 24 July 2016 (issued every 30 minutes, with the page automatically refreshed every 10 minutes)

About weather observations | Map of weather stations | Latest weather observations for NSW | Other Formats
Station Details ID: 066161 Name: HOLSWORTHY AERODROME AWS Lat: -33.99 Lon: 150.95 Height: 68.16 m
Data from the previous 72 hours. | See also: Recent months at Holsworthy
Date/Time
EST
Temp
°C
App
Temp
°C
Dew
Point
°C
Rel
Hum
%
Delta-T
°C
Wind Press
QNH
hPa
Press
MSL
hPa
Rain since
9am
mm
Dir  Spd
km/h
Gust
km/h
Spd
kts
Gust
kts
24/10:30pm 4.5 2.7 1.4 80 1.2 CALM 0 6 0 3 1012.3 1012.4 0.0
24/10:00pm 6.7 3.8 1.6 70 2.1 NW 6 9 3 5 1012.4 1012.5 0.0
24/09:30pm 6.8 3.8 0.7 65 2.4 NNW 6 7 3 4 1012.6 1012.7 0.0
24/09:00pm 8.1 4.6 1.5 63 2.7 N 9 11 5 6 1012.6 1012.7 0.0
24/08:30pm 7.9 4.4 1.5 64 2.6 N 9 13 5 7 1012.4 1012.5 0.0
24/08:00pm 6.9 3.9 1.8 70 2.1 NNW 7 11 4 6 1013.0 1013.1 0.0
24/07:30pm 6.8 5.0 1.3 68 2.2 CALM 0 4 0 2 1013.0 1013.1 0.0
24/07:00pm 9.1 6.0 1.5 59 3.1 NNE 7 9 4 5 1012.8 1012.9 0.0
24/06:30pm 9.1 6.0 1.3 58 3.2 NNE 7 9 4 5 1012.7 1012.8 0.0
24/06:00pm 9.2 6.1 1.4 58 3.2 N 7 11 4 6 1012.3 1012.4 0.0
24/05:30pm 9.7 6.4 0.1 51 3.9 NNW 7 9 4 5 1012.0 1012.1 0.0
24/05:00pm 11.3 7.9 -0.5 44 4.8 WNW 7 9 4 5 1011.6 1011.7 0.0
24/04:30pm 13.0 9.3 0.1 41 5.4 NW 9 15 5 8 1011.3 1011.4 0.0
24/04:00pm 13.3 8.3 -1.1 37 5.9 WNW 15 20 8 11 1011.7 1011.8 0.0
24/03:30pm 14.0 9.7 1.3 42 5.5 W 13 20 7 11 1011.7 1011.8 0.0
24/03:00pm 13.6 8.9 0.9 42 5.4 WNW 15 24 8 13 1012.0 1012.1 0.0
24/02:30pm 14.0 10.1 1.0 41 5.6 WNW 11 20 6 11 1011.9 1012.0 0.0
24/02:00pm 13.1 8.3 0.2 41 5.4 WNW 15 24 8 13 1012.3 1012.4 0.0
24/01:30pm 12.8 8.5 1.2 45 4.9 WNW 13 24 7 13 1012.8 1012.9 0.0
24/01:00pm 11.5 7.2 0.9 48 4.4 WNW 13 22 7 12 1013.4 1013.5 0.0
24/12:30pm 11.5 7.1 0.6 47 4.5 WNW 13 19 7 10 1013.9 1014.0 0.0
24/12:00pm 10.1 5.8 1.2 54 3.7 NW 13 20 7 11 1014.6 1014.6 0.0
24/11:30am 9.3 5.1 1.5 58 3.2 NW 13 20 7 11 1015.6 1015.6 0.0
24/11:00am 8.9 5.1 1.8 61 2.9 WNW 11 19 6 10 1015.5 1015.5 0.0
24/10:30am 8.1 4.3 1.5 63 2.7 NW 11 17 6 9 1015.9 1015.9 0.0
24/10:00am 7.6 4.3 2.5 70 2.1 W 9 13 5 7 1016.0 1016.0 0.0
24/09:30am 6.6 3.6 2.1 73 1.8 WNW 7 11 4 6 1016.3 1016.3 0.0
24/09:00am 5.1 2.0 1.6 78 1.4 W 7 11 4 6 1016.1 1016.1 0.0
24/08:30am 4.0 0.9 1.2 82 1.1 WSW 7 9 4 5 1015.7 1015.7 0.0
24/08:00am 3.0 -0.2 0.7 85 0.9 WSW 7 11 4 6 1015.4 1015.4 0.0
24/07:30am 2.3 -1.0 0.4 87 0.7 W 7 9 4 5 1015.3 1015.3 0.0
24/07:00am 2.1 -1.1 -0.3 84 0.9 SW 6 7 3 4 1015.2 1015.2 0.0
24/06:30am 2.6 -0.6 -0.7 79 1.2 WSW 6 7 3 4 1014.9 1014.9 0.0
24/06:00am 3.2 -0.6 -0.6 76 1.4 W 9 15 5 8 1015.2 1015.2 0.0
24/05:30am 3.2 -1.0 -0.6 76 1.4 W 11 15 6 8 1014.7 1014.7 0.0
24/05:00am 2.9 -0.9 -0.7 77 1.3 WSW 9 13 5 7 1014.5 1014.5 0.0
24/04:30am 2.5 -1.3 -0.9 78 1.2 SW 9 11 5 6 1014.4 1014.4 0.0
24/04:00am 3.2 -0.2 -0.8 75 1.5 SW 7 9 4 5 1014.6 1014.6 0.0
24/03:30am 3.2 -0.9 -0.4 77 1.3 W 11 15 6 8 1014.4 1014.4 0.0
24/03:00am 3.6 0.4 -0.6 74 1.6 S 6 7 3 4 1014.6 1014.6 0.0
24/02:30am 4.7 0.9 -0.7 68 2.0 WNW 9 11 5 6 1014.6 1014.6 0.0
24/02:00am 4.7 2.6 -0.9 67 2.1 CALM 0 4 0 2 1014.8 1014.8 0.0
24/01:30am 6.0 3.5 -0.9 61 2.6 WSW 2 9 1 5 1014.9 1014.9 0.0
24/01:00am 7.8 3.4 -2.2 49 3.7 W 11 15 6 8 1014.5 1014.5 0.0
24/12:30am 8.9 3.4 -2.4 45 4.3 WSW 17 24 9 13 1014.5 1014.5 0.0
24/12:00am 8.9 3.0 -2.4 45 4.2 WSW 19 33 10 18 1014.1 1014.2 0.0
 
Date/Time
EST
Temp
°C
App
Temp
°C
Dew
Point
°C
Rel
Hum
%
Delta-T
°C
Wind Press
QNH
hPa
Press
MSL
hPa
Rain since
9am
mm
Dir  Spd
km/h
Gust
km/h
Spd
kts
Gust
kts
23/11:30pm 9.4 3.5 -2.2 44 4.4 WSW 19 28 10 15 1013.6 1013.7 0.0
23/11:00pm 9.9 3.4 -2.1 43 4.6 WSW 22 41 12 22 1013.3 1013.4 0.0
23/10:33pm 10.1 2.6 -1.6 44 4.5 WSW 28 46 15 25 1012.9 1013.0 0.0
23/10:30pm 10.1 3.0 -1.6 44 4.5 WSW 26 46 14 25 1012.9 1013.0 0.0
23/10:00pm 9.9 4.6 -0.6 48 4.2 WSW 17 24 9 13 1012.7 1012.8 0.0
23/09:30pm 10.2 5.3 -0.3 48 4.2 WSW 15 24 8 13 1011.8 1011.9 0.0
23/09:00pm 10.2 5.3 -0.3 48 4.2 SW 15 24 8 13 1011.1 1011.2 0.0
23/08:30pm 10.4 5.9 -0.1 48 4.2 SW 13 24 7 13 1011.0 1011.1 0.0
23/08:00pm 11.1 5.9 -0.1 46 4.6 WSW 17 26 9 14 1010.5 1010.6 0.0
23/07:30pm 11.0 6.1 -0.2 46 4.5 WSW 15 24 8 13 1010.0 1010.1 0.0
23/07:00pm 11.7 6.1 -0.1 44 4.8 WSW 19 30 10 16 1009.2 1009.3 0.0
23/06:30pm 12.1 6.0 0.2 44 4.9 W 22 37 12 20 1008.6 1008.7 0.0
23/06:00pm 11.9 8.6 0.4 45 4.8 WSW 7 17 4 9 1008.0 1008.1 0.0
23/05:30pm 12.9 8.6 1.0 44 5.1 WNW 13 28 7 15 1007.1 1007.1 0.0
23/05:00pm 13.5 7.8 0.5 41 5.5 W 20 33 11 18 1006.7 1006.7 0.0
23/04:30pm 14.2 6.5 -0.3 37 6.1 W 30 48 16 26 1006.1 1006.1 0.0
23/04:17pm 14.6 7.2 -0.7 35 6.4 W 28 52 15 28 1005.7 1005.7 0.0
23/04:00pm 15.0 8.0 -0.3 35 6.5 W 26 43 14 23 1005.2 1005.2 0.0
23/03:30pm 15.5 7.2 -1.5 31 7.0 W 32 56 17 30 1004.6 1004.6 0.0
23/03:00pm 16.0 7.2 -1.1 31 7.2 W 35 57 19 31 1004.3 1004.3 0.0
23/02:44pm 16.3 8.2 -0.4 32 7.1 W 32 52 17 28 1003.9 1003.9 0.0
23/02:30pm 16.4 8.4 0.5 34 6.9 W 32 46 17 25 1003.6 1003.6 0.0
23/02:06pm 16.6 9.4 0.7 34 6.9 W 28 50 15 27 1003.5 1003.5 0.0
23/02:00pm 16.7 10.3 0.8 34 7.0 W 24 39 13 21 1003.5 1003.5 0.0
23/01:30pm 16.4 10.1 1.7 37 6.5 WNW 24 39 13 21 1003.3 1003.3 0.0
23/01:00pm 16.5 10.2 1.8 37 6.6 WNW 24 37 13 20 1003.2 1003.2 0.0
23/12:30pm 15.9 8.9 2.0 39 6.2 WNW 28 46 15 25 1003.3 1003.3 0.0
23/12:27pm 15.8 8.7 1.5 38 6.3 WNW 28 46 15 25 1003.4 1003.4 0.0
23/12:00pm 15.7 9.1 1.8 39 6.2 WNW 26 39 14 21 1003.6 1003.6 0.0
23/11:30am 15.4 8.8 1.9 40 6.0 WNW 26 39 14 21 1003.5 1003.5 0.0
23/11:19am 15.0 7.8 0.8 38 6.1 WNW 28 52 15 28 1003.7 1003.7 0.0
23/11:00am 15.2 8.8 3.0 44 5.5 WNW 26 44 14 24 1004.0 1004.0 0.0
23/10:30am 14.8 9.4 1.0 39 6.0 W 19 33 10 18 1004.2 1004.2 0.0
23/10:00am 14.2 7.1 1.2 41 5.6 WNW 28 54 15 29 1004.2 1004.2 0.0
23/09:57am 14.3 7.2 1.2 41 5.7 WNW 28 50 15 27 1004.2 1004.2 0.0
23/09:30am 14.1 7.8 1.7 43 5.4 W 24 46 13 25 1004.1 1004.1 0.0
23/09:00am 13.7 6.1 0.4 40 5.6 WNW 30 61 16 33 1003.5 1003.5 4.2
23/08:30am 13.6 6.4 0.6 41 5.5 WNW 28 50 15 27 1003.0 1003.0 4.2
23/08:26am 13.6 6.4 0.6 41 5.5 WNW 28 50 15 27 1002.9 1002.9 4.2
23/08:00am 13.4 8.5 2.3 47 4.9 WNW 17 28 9 15 1002.7 1002.7 4.2
23/07:30am 12.7 8.8 3.6 54 4.1 WNW 13 24 7 13 1002.5 1002.5 4.2
23/07:00am 12.5 7.4 4.0 56 3.9 W 20 35 11 19 1002.3 1002.3 4.2
23/06:30am 13.8 9.7 4.1 52 4.4 W 15 35 8 19 1001.5 1001.5 4.2
23/06:00am 14.2 9.8 4.8 53 4.4 W 17 33 9 18 1000.4 1000.4 4.2
23/05:30am 14.4 9.4 4.7 52 4.5 WNW 20 37 11 20 999.7 999.7 4.2
23/05:04am 15.4 9.0 5.0 50 4.9 W 28 57 15 31 999.1 999.2 4.2
23/05:00am 15.8 10.1 4.8 48 5.2 W 24 57 13 31 999.0 999.1 4.2
23/04:30am 15.5 11.9 4.8 49 5.0 NW 13 24 7 13 998.4 998.5 4.2
23/04:00am 16.2 10.9 4.9 47 5.4 W 22 39 12 21 998.1 998.2 4.2
23/03:30am 16.4 11.1 4.8 46 5.5 WNW 22 39 12 21 998.0 998.1 4.2
23/03:00am 16.4 11.9 6.2 51 5.0 W 19 33 10 18 997.8 997.9 4.2
23/02:30am 15.9 14.0 8.9 63 3.6 NW 9 11 5 6 997.6 997.7 4.2
23/02:00am 16.4 14.0 10.0 66 3.4 WNW 13 20 7 11 997.6 997.7 4.2
23/01:30am 16.2 13.0 12.0 76 2.3 WSW 20 30 11 16 997.8 997.9 4.2
23/01:00am 16.3 15.5 15.2 93 0.6 SW 13 17 7 9 998.1 998.2 4.2
23/12:30am 16.5 17.0 15.5 94 0.6 SW 7 11 4 6 997.8 997.9 4.0
23/12:28am 16.6 17.1 15.6 94 0.6 WSW 7 11 4 6 997.9 998.0 4.0
23/12:07am 16.7 16.9 15.7 94 0.6 WSW 9 13 5 7 997.7 997.8 3.6
23/12:00am 16.7 16.9 15.7 94 0.6 WSW 9 13 5 7 997.9 998.0 3.0
 
Date/Time
EST
Temp
°C
App
Temp
°C
Dew
Point
°C
Rel
Hum
%
Delta-T
°C
Wind Press
QNH
hPa
Press
MSL
hPa
Rain since
9am
mm
Dir  Spd
km/h
Gust
km/h
Spd
kts
Gust
kts
22/11:41pm 16.7 15.3 15.6 93 0.6 S 17 22 9 12 997.5 997.6 2.4
22/11:30pm 16.6 14.7 15.3 92 0.8 S 19 26 10 14 997.5 997.6 1.8
22/11:15pm 17.4 15.8 14.9 85 1.5 SSW 17 26 9 14 997.5 997.6 0.8
22/11:00pm 17.8 17.5 14.5 81 1.9 SSE 9 13 5 7 996.5 996.6 0.2
22/10:30pm 18.8 18.7 13.9 73 2.8 SSE 7 13 4 7 997.1 997.2 0.0
22/10:00pm 19.7 18.9 12.9 65 3.9 SSE 9 15 5 8 997.2 997.3 0.0
22/09:30pm 21.0 19.4 12.9 60 4.6 N 13 17 7 9 997.6 997.7 0.0
22/09:00pm 20.9 19.3 12.8 60 4.6 N 13 19 7 10 998.3 998.4 0.0
22/08:30pm 20.9 18.5 12.6 59 4.7 N 17 22 9 12 998.6 998.7 0.0
22/08:00pm 21.1 19.4 12.5 58 4.9 N 13 19 7 10 999.1 999.2 0.0
22/07:30pm 21.7 19.2 12.3 55 5.3 NNW 17 24 9 13 999.6 999.6 0.0
22/07:00pm 21.6 19.2 12.5 56 5.2 NNW 17 22 9 12 999.3 999.3 0.0
22/06:30pm 21.7 19.2 12.3 55 5.3 N 17 26 9 14 998.8 998.9 0.0
22/06:00pm 22.6 19.6 12.0 51 6.0 NW 19 30 10 16 999.7 999.7 0.0
22/05:30pm 23.0 19.5 12.3 51 6.1 NNW 22 35 12 19 999.5 999.5 0.0
22/05:00pm 23.2 19.5 12.8 52 6.0 NW 24 44 13 24 1000.1 1000.1 0.0
22/04:30pm 23.5 19.1 12.8 51 6.2 NW 28 44 15 24 999.7 999.7 0.0
22/04:00pm 24.0 18.7 12.6 49 6.6 NW 32 56 17 30 1000.0 1000.0 0.0
22/03:30pm 24.7 20.3 13.0 48 6.8 NW 28 46 15 25 1000.4 1000.4 0.0
22/03:00pm 25.0 20.6 12.9 47 7.1 NW 28 48 15 26 1000.9 1000.9 0.0
22/02:31pm 24.9 20.5 12.8 47 7.0 NW 28 59 15 32 1001.1 1001.1 0.0
22/02:30pm 25.0 21.0 12.9 47 7.0 NW 26 59 14 32 1001.2 1001.2 0.0
22/02:21pm 25.1 20.6 12.7 46 7.2 WNW 28 50 15 27 1001.3 1001.3 0.0
22/02:00pm 25.1 21.1 13.0 47 7.1 NW 26 46 14 25 1001.5 1001.5 0.0
22/01:30pm 24.7 23.3 15.6 57 5.5 NW 17 28 9 15 1002.0 1002.0 0.0
22/01:00pm 23.9 21.9 14.9 57 5.4 NNW 19 28 10 15 1002.5 1002.5 0.0
22/12:30pm 23.2 22.5 16.5 66 4.1 NNE 15 22 8 12 1003.3 1003.3 0.0
22/12:00pm 21.6 19.6 15.0 66 3.9 N 19 28 10 15 1004.3 1004.3 0.0
22/11:30am 20.5 19.1 14.6 69 3.5 N 15 22 8 12 1005.1 1005.1 0.0
22/11:00am 19.3 18.2 14.3 73 2.9 N 13 20 7 11 1005.8 1005.8 0.0
22/10:30am 18.9 16.9 14.0 73 2.8 NNW 17 26 9 14 1006.8 1006.8 0.0
22/10:00am 18.8 16.3 13.6 72 3.0 N 19 32 10 17 1007.6 1007.7 0.0
22/09:30am 18.1 17.2 14.8 81 1.9 N 13 24 7 13 1008.0 1008.1 0.0
22/09:00am 15.5 15.0 13.9 90 0.9 N 9 15 5 8 1008.6 1008.7 0.8
22/08:30am 13.3 12.4 12.5 95 0.4 NW 9 17 5 9 1009.2 1009.3 0.8
22/08:00am 11.9 11.7 11.7 99 0.1 W 4 7 2 4 1009.7 1009.8 0.8
22/07:36am 10.9 10.0 10.7 99 0.1 WSW 6 7 3 4 1010.1 1010.2 0.8
22/07:30am 10.5 9.3 10.3 99 0.1 WSW 7 11 4 6 1010.1 1010.2 0.8
22/07:00am 9.2 7.3 9.1 99 0.0 WSW 9 11 5 6 1010.2 1010.3 0.8
22/06:50am 9.0 7.4 8.9 99 0.0 WSW 7 11 4 6 1010.3 1010.4 0.8
22/06:44am 8.9 7.3 8.8 99 0.0 SW 7 11 4 6 1010.3 1010.4 0.8
22/06:30am 8.6 7.1 8.5 99 0.0 SW 6 9 3 5 1010.4 1010.5 0.8
22/06:00am 9.2 7.9 9.1 99 0.0 WSW 6 7 3 4 1010.6 1010.7 0.8
22/05:55am 9.4 8.1 9.3 99 0.0 SW 6 7 3 4 1010.3 1010.4 0.8
22/05:53am 9.4 8.1 9.3 99 0.0 SW 6 7 3 4 1010.4 1010.5 0.8
22/05:50am 9.6 8.4 9.5 99 0.0 SW 6 9 3 5 1010.4 1010.5 0.8
22/05:30am 9.8 8.1 9.7 99 0.1 WSW 9 11 5 6 1011.0 1011.1 0.8
22/05:00am 10.7 9.6 10.5 99 0.1 WSW 7 11 4 6 1011.3 1011.4 0.8
22/04:30am 11.1 10.1 10.9 99 0.1 SW 7 9 4 5 1011.4 1011.5 0.8
22/04:00am 11.4 10.6 11.2 99 0.1 WSW 6 9 3 5 1011.4 1011.5 0.8
22/03:30am 11.7 10.8 11.5 99 0.1 NNW 7 11 4 6 1011.8 1011.9 0.8
22/03:00am 11.6 10.7 11.4 99 0.1 W 7 9 4 5 1012.5 1012.6 0.8
22/02:30am 11.5 10.6 11.3 99 0.1 W 7 9 4 5 1013.0 1013.1 0.8
22/02:00am 11.7 10.8 11.5 99 0.1 W 7 9 4 5 1013.3 1013.4 0.8
22/01:30am 12.0 11.2 11.8 99 0.1 NW 7 9 4 5 1013.3 1013.4 0.8
22/01:00am 12.6 12.2 12.4 99 0.1 W 6 7 3 4 1013.5 1013.6 0.6
22/12:30am 12.6 12.0 12.4 99 0.1 W 7 13 4 7 1014.2 1014.3 0.6
22/12:20am 12.0 11.2 11.7 98 0.2 WSW 7 13 4 7 1014.7 1014.7 0.6
22/12:00am 11.9 11.1 11.7 99 0.1 SW 7 9 4 5 1014.6 1014.6 0.6
 
Date/Time
EST
Temp
°C
App
Temp
°C
Dew
Point
°C
Rel
Hum
%
Delta-T
°C
Wind Press
QNH
hPa
Press
MSL
hPa
Rain since
9am
mm
Dir  Spd
km/h
Gust
km/h
Spd
kts
Gust
kts
21/11:30pm 10.9 9.7 10.4 97 0.3 WSW 7 9 4 5 1015.1 1015.1 0.6
21/11:00pm 11.2 10.3 10.6 96 0.3 WSW 6 7 3 4 1015.0 1015.0 0.6

Other Formats:

Comma delimited format used in spreadsheet applications
http://www.bom.gov.au/fwo/IDN60801/IDN60801.95761.axf

JavaScript Object Notation format (JSON) in row-major order
http://www.bom.gov.au/fwo/IDN60801/IDN60801.95761.json